sensor_id;sensor_type;location;lat;lon;timestamp;pressure;altitude;pressure_sealevel;temperature;humidity
9335;BME280;4706;41.844;26.082;2022-07-23T00:00:46;100805.50;;;28.35;40.17
9335;BME280;4706;41.844;26.082;2022-07-23T00:03:12;100824.50;;;28.38;40.22
9335;BME280;4706;41.844;26.082;2022-07-23T00:05:38;100817.69;;;28.28;40.32
9335;BME280;4706;41.844;26.082;2022-07-23T00:08:05;100819.63;;;28.35;40.58
9335;BME280;4706;41.844;26.082;2022-07-23T00:10:30;100823.25;;;28.36;40.48
9335;BME280;4706;41.844;26.082;2022-07-23T00:12:56;100816.53;;;28.22;40.91
9335;BME280;4706;41.844;26.082;2022-07-23T00:15:22;100823.38;;;28.25;40.99
9335;BME280;4706;41.844;26.082;2022-07-23T00:17:48;100814.19;;;28.10;41.03
9335;BME280;4706;41.844;26.082;2022-07-23T00:20:14;100817.91;;;28.00;41.25
9335;BME280;4706;41.844;26.082;2022-07-23T00:23:05;100816.66;;;28.04;41.27
9335;BME280;4706;41.844;26.082;2022-07-23T00:25:31;100815.06;;;28.03;41.25
9335;BME280;4706;41.844;26.082;2022-07-23T00:27:58;100814.69;;;27.94;41.42
9335;BME280;4706;41.844;26.082;2022-07-23T00:30:24;100809.47;;;27.93;41.35
9335;BME280;4706;41.844;26.082;2022-07-23T00:32:55;100806.97;;;28.02;41.55
9335;BME280;4706;41.844;26.082;2022-07-23T00:35:28;100808.59;;;28.03;41.49
9335;BME280;4706;41.844;26.082;2022-07-23T00:37:55;100794.88;;;27.98;41.31
9335;BME280;4706;41.844;26.082;2022-07-23T00:40:21;100794.81;;;28.05;41.15
9335;BME280;4706;41.844;26.082;2022-07-23T00:42:47;100801.38;;;27.98;41.20
9335;BME280;4706;41.844;26.082;2022-07-23T00:45:12;100800.56;;;27.94;41.29
9335;BME280;4706;41.844;26.082;2022-07-23T00:47:38;100808.22;;;27.97;41.13
9335;BME280;4706;41.844;26.082;2022-07-23T00:50:05;100796.94;;;27.90;41.23
9335;BME280;4706;41.844;26.082;2022-07-23T00:52:32;100805.44;;;27.87;41.51
9335;BME280;4706;41.844;26.082;2022-07-23T00:54:58;100810.72;;;27.84;41.42
9335;BME280;4706;41.844;26.082;2022-07-23T00:57:25;100806.34;;;27.76;41.41
9335;BME280;4706;41.844;26.082;2022-07-23T00:59:50;100803.94;;;27.68;41.20
9335;BME280;4706;41.844;26.082;2022-07-23T01:02:16;100799.56;;;27.56;41.49
9335;BME280;4706;41.844;26.082;2022-07-23T01:04:41;100805.59;;;27.62;41.64
9335;BME280;4706;41.844;26.082;2022-07-23T01:07:07;100805.97;;;27.64;41.32
9335;BME280;4706;41.844;26.082;2022-07-23T01:09:33;100807.97;;;27.67;41.22
9335;BME280;4706;41.844;26.082;2022-07-23T01:11:59;100802.03;;;27.50;41.53
9335;BME280;4706;41.844;26.082;2022-07-23T01:14:25;100802.94;;;27.26;41.96
9335;BME280;4706;41.844;26.082;2022-07-23T01:16:52;100805.00;;;27.15;42.51
9335;BME280;4706;41.844;26.082;2022-07-23T01:19:18;100803.78;;;27.08;42.41
9335;BME280;4706;41.844;26.082;2022-07-23T01:21:46;100802.59;;;27.13;42.83
9335;BME280;4706;41.844;26.082;2022-07-23T01:24:13;100806.63;;;27.16;42.74
9335;BME280;4706;41.844;26.082;2022-07-23T01:26:42;100809.00;;;27.10;42.80
9335;BME280;4706;41.844;26.082;2022-07-23T01:29:07;100812.28;;;27.12;42.60
9335;BME280;4706;41.844;26.082;2022-07-23T01:31:33;100811.44;;;27.08;42.76
9335;BME280;4706;41.844;26.082;2022-07-23T01:33:58;100813.06;;;27.05;42.84
9335;BME280;4706;41.844;26.082;2022-07-23T01:36:24;100818.31;;;27.03;42.92
9335;BME280;4706;41.844;26.082;2022-07-23T01:38:50;100813.47;;;26.97;42.81
9335;BME280;4706;41.844;26.082;2022-07-23T01:41:15;100817.50;;;26.99;43.19
9335;BME280;4706;41.844;26.082;2022-07-23T01:43:41;100806.63;;;27.05;42.90
9335;BME280;4706;41.844;26.082;2022-07-23T01:46:07;100813.47;;;27.04;43.29
9335;BME280;4706;41.844;26.082;2022-07-23T01:48:33;100806.63;;;26.98;43.34
9335;BME280;4706;41.844;26.082;2022-07-23T01:50:58;100806.66;;;26.94;43.48
9335;BME280;4706;41.844;26.082;2022-07-23T01:53:24;100813.44;;;27.07;43.71
9335;BME280;4706;41.844;26.082;2022-07-23T01:55:50;100811.84;;;27.06;43.70
9335;BME280;4706;41.844;26.082;2022-07-23T01:58:15;100805.41;;;27.17;43.30
9335;BME280;4706;41.844;26.082;2022-07-23T02:00:41;100812.28;;;27.16;43.28
9335;BME280;4706;41.844;26.082;2022-07-23T02:03:06;100806.56;;;27.19;43.21
9335;BME280;4706;41.844;26.082;2022-07-23T02:05:32;100811.44;;;27.19;43.26
9335;BME280;4706;41.844;26.082;2022-07-23T02:07:59;100820.31;;;27.17;44.40
9335;BME280;4706;41.844;26.082;2022-07-23T02:10:25;100809.81;;;27.10;43.83
9335;BME280;4706;41.844;26.082;2022-07-23T02:12:51;100809.44;;;27.08;44.03
9335;BME280;4706;41.844;26.082;2022-07-23T02:15:16;100817.50;;;27.17;43.51
9335;BME280;4706;41.844;26.082;2022-07-23T02:17:42;100813.84;;;27.09;43.59
9335;BME280;4706;41.844;26.082;2022-07-23T02:20:09;100824.75;;;27.00;43.91
9335;BME280;4706;41.844;26.082;2022-07-23T02:22:35;100813.47;;;26.97;44.05
9335;BME280;4706;41.844;26.082;2022-07-23T02:25:02;100819.13;;;27.00;44.00
9335;BME280;4706;41.844;26.082;2022-07-23T02:27:27;100817.53;;;26.88;43.88
9335;BME280;4706;41.844;26.082;2022-07-23T02:29:53;100820.00;;;26.76;44.30
9335;BME280;4706;41.844;26.082;2022-07-23T02:32:20;100819.19;;;26.72;44.49
9335;BME280;4706;41.844;26.082;2022-07-23T02:34:47;100820.44;;;26.56;45.15
9335;BME280;4706;41.844;26.082;2022-07-23T02:37:13;100822.44;;;26.56;45.22
9335;BME280;4706;41.844;26.082;2022-07-23T02:39:39;100824.84;;;26.54;45.22
9335;BME280;4706;41.844;26.082;2022-07-23T02:42:05;100829.28;;;26.55;45.30
9335;BME280;4706;41.844;26.082;2022-07-23T02:44:30;100816.38;;;26.57;45.21
9335;BME280;4706;41.844;26.082;2022-07-23T02:46:56;100826.06;;;26.53;45.30
9335;BME280;4706;41.844;26.082;2022-07-23T02:49:21;100832.09;;;26.48;45.60
9335;BME280;4706;41.844;26.082;2022-07-23T02:51:47;100836.56;;;26.56;45.39
9335;BME280;4706;41.844;26.082;2022-07-23T02:54:13;100819.19;;;26.39;45.67
9335;BME280;4706;41.844;26.082;2022-07-23T02:56:38;100826.03;;;26.35;45.91
9335;BME280;4706;41.844;26.082;2022-07-23T02:59:04;100832.09;;;26.26;46.34
9335;BME280;4706;41.844;26.082;2022-07-23T03:01:30;100824.81;;;26.07;46.54
9335;BME280;4706;41.844;26.082;2022-07-23T03:03:55;100835.69;;;26.05;46.62
9335;BME280;4706;41.844;26.082;2022-07-23T03:06:21;100844.16;;;26.12;46.32
9335;BME280;4706;41.844;26.082;2022-07-23T03:08:47;100840.94;;;26.10;46.36
9335;BME280;4706;41.844;26.082;2022-07-23T03:11:12;100838.50;;;26.16;46.12
9335;BME280;4706;41.844;26.082;2022-07-23T03:13:39;100838.13;;;26.28;45.71
9335;BME280;4706;41.844;26.082;2022-07-23T03:16:05;100846.56;;;26.32;45.70
9335;BME280;4706;41.844;26.082;2022-07-23T03:18:31;100841.72;;;26.29;46.13
9335;BME280;4706;41.844;26.082;2022-07-23T03:20:57;100849.00;;;26.33;45.75
9335;BME280;4706;41.844;26.082;2022-07-23T03:23:22;100841.75;;;26.43;45.27
9335;BME280;4706;41.844;26.082;2022-07-23T03:25:48;100848.59;;;26.38;45.44
9335;BME280;4706;41.844;26.082;2022-07-23T03:28:15;100857.06;;;26.35;45.75
9335;BME280;4706;41.844;26.082;2022-07-23T03:30:45;100860.69;;;26.43;45.46
9335;BME280;4706;41.844;26.082;2022-07-23T03:33:15;100850.63;;;26.45;45.83
9335;BME280;4706;41.844;26.082;2022-07-23T03:35:43;100849.44;;;26.46;45.36
9335;BME280;4706;41.844;26.082;2022-07-23T03:38:08;100850.63;;;26.42;45.22
9335;BME280;4706;41.844;26.082;2022-07-23T03:40:34;100846.56;;;26.28;45.42
9335;BME280;4706;41.844;26.082;2022-07-23T03:42:59;100857.84;;;26.14;45.92
9335;BME280;4706;41.844;26.082;2022-07-23T03:45:25;100859.03;;;26.13;45.81
9335;BME280;4706;41.844;26.082;2022-07-23T03:47:51;100857.84;;;26.14;45.85
9335;BME280;4706;41.844;26.082;2022-07-23T03:50:16;100845.38;;;26.22;45.39
9335;BME280;4706;41.844;26.082;2022-07-23T03:52:42;100847.38;;;26.18;45.20
9335;BME280;4706;41.844;26.082;2022-07-23T03:55:08;100855.03;;;26.28;45.40
9335;BME280;4706;41.844;26.082;2022-07-23T03:57:33;100851.81;;;26.23;45.23
9335;BME280;4706;41.844;26.082;2022-07-23T03:59:59;100856.66;;;26.26;45.19
9335;BME280;4706;41.844;26.082;2022-07-23T04:02:25;100869.56;;;26.30;45.07
9335;BME280;4706;41.844;26.082;2022-07-23T04:04:51;100851.00;;;26.40;44.95
9335;BME280;4706;41.844;26.082;2022-07-23T04:07:16;100857.47;;;26.37;44.79
9335;BME280;4706;41.844;26.082;2022-07-23T04:09:43;100856.66;;;26.40;44.53
9335;BME280;4706;41.844;26.082;2022-07-23T04:12:09;100864.34;;;26.57;44.62
9335;BME280;4706;41.844;26.082;2022-07-23T04:14:35;100864.34;;;26.64;44.71
9335;BME280;4706;41.844;26.082;2022-07-23T04:17:01;100858.69;;;26.72;44.81
9335;BME280;4706;41.844;26.082;2022-07-23T04:19:27;100866.72;;;26.95;44.78
9335;BME280;4706;41.844;26.082;2022-07-23T04:21:53;100863.47;;;27.03;44.57
9335;BME280;4706;41.844;26.082;2022-07-23T04:24:19;100867.53;;;27.13;44.70
9335;BME280;4706;41.844;26.082;2022-07-23T04:26:45;100864.72;;;27.13;44.45
9335;BME280;4706;41.844;26.082;2022-07-23T04:29:11;100861.47;;;27.18;44.49
9335;BME280;4706;41.844;26.082;2022-07-23T04:31:37;100861.00;;;27.30;44.29
9335;BME280;4706;41.844;26.082;2022-07-23T04:34:02;100852.94;;;27.36;43.56
9335;BME280;4706;41.844;26.082;2022-07-23T04:36:28;100855.72;;;27.50;43.71
9335;BME280;4706;41.844;26.082;2022-07-23T04:38:55;100859.28;;;27.65;43.22
9335;BME280;4706;41.844;26.082;2022-07-23T04:41:20;100847.53;;;27.67;43.38
9335;BME280;4706;41.844;26.082;2022-07-23T04:43:46;100854.75;;;27.82;43.10
9335;BME280;4706;41.844;26.082;2022-07-23T04:46:12;100853.94;;;27.85;42.90
9335;BME280;4706;41.844;26.082;2022-07-23T04:48:38;100868.00;;;27.99;42.50
9335;BME280;4706;41.844;26.082;2022-07-23T04:51:03;100839.34;;;27.90;42.66
9335;BME280;4706;41.844;26.082;2022-07-23T04:53:29;100847.75;;;28.04;42.67
9335;BME280;4706;41.844;26.082;2022-07-23T04:55:55;100861.34;;;28.24;41.95
9335;BME280;4706;41.844;26.082;2022-07-23T04:58:21;100858.47;;;28.31;42.12
9335;BME280;4706;41.844;26.082;2022-07-23T05:00:47;100864.03;;;28.49;41.88
9335;BME280;4706;41.844;26.082;2022-07-23T05:03:13;100872.03;;;28.58;41.72
9335;BME280;4706;41.844;26.082;2022-07-23T05:05:38;100876.38;;;28.69;41.54
9335;BME280;4706;41.844;26.082;2022-07-23T05:08:04;100867.38;;;28.82;41.53
9335;BME280;4706;41.844;26.082;2022-07-23T05:10:30;100866.03;;;28.93;41.34
9335;BME280;4706;41.844;26.082;2022-07-23T05:12:55;100873.19;;;29.09;40.65
9335;BME280;4706;41.844;26.082;2022-07-23T05:15:21;100867.41;;;29.19;40.65
9335;BME280;4706;41.844;26.082;2022-07-23T05:17:47;100870.84;;;29.38;40.21
9335;BME280;4706;41.844;26.082;2022-07-23T05:20:12;100866.22;;;29.51;39.36
9335;BME280;4706;41.844;26.082;2022-07-23T05:22:39;100873.88;;;29.54;39.63
9335;BME280;4706;41.844;26.082;2022-07-23T05:25:05;100867.28;;;29.68;39.49
9335;BME280;4706;41.844;26.082;2022-07-23T05:27:31;100864.00;;;29.69;39.94
9335;BME280;4706;41.844;26.082;2022-07-23T05:29:57;100843.66;;;29.74;39.23
9335;BME280;4706;41.844;26.082;2022-07-23T05:32:22;100866.84;;;29.96;39.09
9335;BME280;4706;41.844;26.082;2022-07-23T05:34:48;100868.69;;;30.10;38.69
9335;BME280;4706;41.844;26.082;2022-07-23T05:37:14;100876.13;;;30.28;38.63
9335;BME280;4706;41.844;26.082;2022-07-23T05:39:39;100868.75;;;30.34;38.12
9335;BME280;4706;41.844;26.082;2022-07-23T05:42:05;100863.75;;;30.41;38.31
9335;BME280;4706;41.844;26.082;2022-07-23T05:44:30;100851.66;;;30.61;38.45
9335;BME280;4706;41.844;26.082;2022-07-23T05:46:56;100874.44;;;30.84;37.56
9335;BME280;4706;41.844;26.082;2022-07-23T05:49:21;100839.50;;;30.84;37.48
9335;BME280;4706;41.844;26.082;2022-07-23T05:51:47;100854.44;;;31.11;37.34
9335;BME280;4706;41.844;26.082;2022-07-23T05:54:12;100873.56;;;31.31;36.73
9335;BME280;4706;41.844;26.082;2022-07-23T05:56:38;100872.03;;;31.46;36.31
9335;BME280;4706;41.844;26.082;2022-07-23T05:59:03;100867.19;;;31.63;36.22
9335;BME280;4706;41.844;26.082;2022-07-23T06:01:29;100866.47;;;31.79;36.08
9335;BME280;4706;41.844;26.082;2022-07-23T06:03:55;100858.13;;;31.88;35.29
9335;BME280;4706;41.844;26.082;2022-07-23T06:06:20;100863.34;;;32.09;35.15
9335;BME280;4706;41.844;26.082;2022-07-23T06:08:46;100856.78;;;32.29;34.64
9335;BME280;4706;41.844;26.082;2022-07-23T06:11:11;100849.97;;;32.43;34.15
9335;BME280;4706;41.844;26.082;2022-07-23T06:13:37;100857.94;;;32.64;34.25
9335;BME280;4706;41.844;26.082;2022-07-23T06:16:03;100848.22;;;32.78;33.34
9335;BME280;4706;41.844;26.082;2022-07-23T06:18:28;100853.81;;;32.98;32.91
9335;BME280;4706;41.844;26.082;2022-07-23T06:20:54;100850.56;;;33.12;31.49
9335;BME280;4706;41.844;26.082;2022-07-23T06:23:20;100854.47;;;33.18;31.60
9335;BME280;4706;41.844;26.082;2022-07-23T06:25:45;100849.38;;;33.26;31.61
9335;BME280;4706;41.844;26.082;2022-07-23T06:28:11;100846.13;;;33.40;31.37
9335;BME280;4706;41.844;26.082;2022-07-23T06:30:37;100839.78;;;33.49;30.88
9335;BME280;4706;41.844;26.082;2022-07-23T06:33:03;100850.28;;;33.65;31.30
9335;BME280;4706;41.844;26.082;2022-07-23T06:35:28;100849.63;;;33.86;31.31
9335;BME280;4706;41.844;26.082;2022-07-23T06:37:54;100849.06;;;34.04;30.61
9335;BME280;4706;41.844;26.082;2022-07-23T06:40:19;100833.47;;;34.08;30.60
9335;BME280;4706;41.844;26.082;2022-07-23T06:42:45;100848.97;;;34.20;30.30
9335;BME280;4706;41.844;26.082;2022-07-23T06:45:11;100850.69;;;34.30;30.45
9335;BME280;4706;41.844;26.082;2022-07-23T06:47:37;100848.13;;;34.45;30.43
9335;BME280;4706;41.844;26.082;2022-07-23T06:50:04;100847.47;;;34.54;30.07
9335;BME280;4706;41.844;26.082;2022-07-23T06:52:29;100839.44;;;34.62;30.02
9335;BME280;4706;41.844;26.082;2022-07-23T06:54:55;100837.16;;;34.69;30.42
9335;BME280;4706;41.844;26.082;2022-07-23T06:57:20;100829.00;;;34.80;29.30
9335;BME280;4706;41.844;26.082;2022-07-23T06:59:46;100837.63;;;34.90;29.59
9335;BME280;4706;41.844;26.082;2022-07-23T07:02:11;100839.69;;;35.02;29.34
9335;BME280;4706;41.844;26.082;2022-07-23T07:04:37;100831.22;;;35.20;29.15
9335;BME280;4706;41.844;26.082;2022-07-23T07:07:02;100831.34;;;35.39;28.22
9335;BME280;4706;41.844;26.082;2022-07-23T07:09:28;100829.69;;;35.50;28.04
9335;BME280;4706;41.844;26.082;2022-07-23T07:11:54;100830.56;;;35.60;27.94
9335;BME280;4706;41.844;26.082;2022-07-23T07:14:20;100832.25;;;35.80;27.89
9335;BME280;4706;41.844;26.082;2022-07-23T07:16:45;100833.59;;;35.97;27.51
9335;BME280;4706;41.844;26.082;2022-07-23T07:19:11;100827.13;;;36.06;27.16
9335;BME280;4706;41.844;26.082;2022-07-23T07:21:36;100828.28;;;36.17;27.24
9335;BME280;4706;41.844;26.082;2022-07-23T07:24:02;100826.41;;;36.33;27.12
9335;BME280;4706;41.844;26.082;2022-07-23T07:26:27;100815.28;;;36.44;26.97
9335;BME280;4706;41.844;26.082;2022-07-23T07:28:53;100819.50;;;36.61;26.71
9335;BME280;4706;41.844;26.082;2022-07-23T07:31:19;100822.84;;;36.69;26.68
9335;BME280;4706;41.844;26.082;2022-07-23T07:33:44;100819.19;;;36.78;26.41
9335;BME280;4706;41.844;26.082;2022-07-23T07:36:10;100812.19;;;36.79;26.66
9335;BME280;4706;41.844;26.082;2022-07-23T07:38:36;100801.81;;;36.81;27.14
9335;BME280;4706;41.844;26.082;2022-07-23T07:41:01;100805.78;;;36.93;26.42
9335;BME280;4706;41.844;26.082;2022-07-23T07:43:27;100804.22;;;37.10;26.34
9335;BME280;4706;41.844;26.082;2022-07-23T07:45:52;100784.94;;;37.20;25.97
9335;BME280;4706;41.844;26.082;2022-07-23T07:48:18;100804.03;;;37.51;26.23
9335;BME280;4706;41.844;26.082;2022-07-23T07:50:44;100791.88;;;37.56;25.40
9335;BME280;4706;41.844;26.082;2022-07-23T07:53:09;100801.72;;;37.73;25.74
9335;BME280;4706;41.844;26.082;2022-07-23T07:55:35;100787.91;;;37.86;25.85
9335;BME280;4706;41.844;26.082;2022-07-23T07:58:01;100788.78;;;38.11;25.38
9335;BME280;4706;41.844;26.082;2022-07-23T08:00:27;100787.13;;;38.19;25.16
9335;BME280;4706;41.844;26.082;2022-07-23T08:02:54;100786.06;;;38.41;24.22
9335;BME280;4706;41.844;26.082;2022-07-23T08:05:22;100780.75;;;38.48;24.37
9335;BME280;4706;41.844;26.082;2022-07-23T08:07:48;100791.97;;;38.61;24.07
9335;BME280;4706;41.844;26.082;2022-07-23T08:10:13;100785.00;;;38.53;24.06
9335;BME280;4706;41.844;26.082;2022-07-23T08:12:43;100777.69;;;38.52;23.62
9335;BME280;4706;41.844;26.082;2022-07-23T08:15:11;100771.84;;;38.61;24.31
9335;BME280;4706;41.844;26.082;2022-07-23T08:17:37;100775.38;;;38.80;23.13
9335;BME280;4706;41.844;26.082;2022-07-23T08:20:04;100767.06;;;38.82;23.60
9335;BME280;4706;41.844;26.082;2022-07-23T08:22:43;100771.56;;;38.98;23.06
9335;BME280;4706;41.844;26.082;2022-07-23T08:25:09;100773.66;;;39.12;22.71
9335;BME280;4706;41.844;26.082;2022-07-23T08:27:35;100765.22;;;39.23;22.74
9335;BME280;4706;41.844;26.082;2022-07-23T08:30:01;100779.72;;;39.44;23.15
9335;BME280;4706;41.844;26.082;2022-07-23T08:32:26;100773.03;;;39.67;22.76
9335;BME280;4706;41.844;26.082;2022-07-23T08:34:52;100766.78;;;39.84;22.00
9335;BME280;4706;41.844;26.082;2022-07-23T08:37:17;100771.25;;;40.05;22.48
9335;BME280;4706;41.844;26.082;2022-07-23T08:39:43;100766.25;;;40.20;21.83
9335;BME280;4706;41.844;26.082;2022-07-23T08:42:08;100766.19;;;40.35;21.67
9335;BME280;4706;41.844;26.082;2022-07-23T08:44:35;100756.41;;;40.47;21.85
9335;BME280;4706;41.844;26.082;2022-07-23T08:47:01;100761.81;;;40.60;20.84
9335;BME280;4706;41.844;26.082;2022-07-23T08:49:28;100764.97;;;40.62;21.58
9335;BME280;4706;41.844;26.082;2022-07-23T08:51:55;100777.16;;;40.72;21.39
9335;BME280;4706;41.844;26.082;2022-07-23T08:54:22;100763.94;;;40.86;21.02
9335;BME280;4706;41.844;26.082;2022-07-23T08:56:48;100762.81;;;41.04;20.61
9335;BME280;4706;41.844;26.082;2022-07-23T08:59:14;100761.56;;;41.10;20.33
9335;BME280;4706;41.844;26.082;2022-07-23T09:01:39;100763.03;;;41.26;20.08
9335;BME280;4706;41.844;26.082;2022-07-23T09:04:05;100760.84;;;41.15;19.94
9335;BME280;4706;41.844;26.082;2022-07-23T09:06:31;100767.53;;;41.01;19.85
9335;BME280;4706;41.844;26.082;2022-07-23T09:08:56;100757.16;;;40.89;19.97
9335;BME280;4706;41.844;26.082;2022-07-23T09:11:22;100752.88;;;41.05;20.08
9335;BME280;4706;41.844;26.082;2022-07-23T09:13:51;100743.31;;;41.19;19.50
9335;BME280;4706;41.844;26.082;2022-07-23T09:18:54;100742.56;;;41.56;18.84
9335;BME280;4706;41.844;26.082;2022-07-23T09:29:16;100726.31;;;42.01;18.16
9335;BME280;4706;41.844;26.082;2022-07-23T09:31:52;100721.19;;;42.22;18.19
9335;BME280;4706;41.844;26.082;2022-07-23T09:34:30;100716.81;;;42.43;17.90
9335;BME280;4706;41.844;26.082;2022-07-23T09:37:09;100712.94;;;42.69;17.07
9335;BME280;4706;41.844;26.082;2022-07-23T09:39:35;100712.44;;;42.76;16.69
9335;BME280;4706;41.844;26.082;2022-07-23T09:42:20;100705.09;;;42.81;17.13
9335;BME280;4706;41.844;26.082;2022-07-23T09:44:55;100706.69;;;42.93;16.79
9335;BME280;4706;41.844;26.082;2022-07-23T09:47:23;100707.22;;;42.86;16.43
9335;BME280;4706;41.844;26.082;2022-07-23T09:50:04;100696.41;;;42.75;16.30
9335;BME280;4706;41.844;26.082;2022-07-23T09:52:36;100683.78;;;42.67;17.12
9335;BME280;4706;41.844;26.082;2022-07-23T09:55:06;100695.09;;;42.71;16.65
9335;BME280;4706;41.844;26.082;2022-07-23T09:57:32;100685.63;;;42.76;16.67
9335;BME280;4706;41.844;26.082;2022-07-23T10:00:02;100683.78;;;42.73;16.54
9335;BME280;4706;41.844;26.082;2022-07-23T10:02:31;100680.38;;;42.91;16.82
9335;BME280;4706;41.844;26.082;2022-07-23T10:04:57;100679.84;;;42.87;16.18
9335;BME280;4706;41.844;26.082;2022-07-23T10:07:26;100680.13;;;43.00;16.45
9335;BME280;4706;41.844;26.082;2022-07-23T10:09:55;100673.03;;;43.18;16.21
9335;BME280;4706;41.844;26.082;2022-07-23T10:12:22;100675.94;;;43.07;15.63
9335;BME280;4706;41.844;26.082;2022-07-23T10:14:51;100672.47;;;42.91;16.32
9335;BME280;4706;41.844;26.082;2022-07-23T10:17:18;100669.59;;;43.03;16.04
9335;BME280;4706;41.844;26.082;2022-07-23T10:19:44;100671.19;;;43.26;16.36
9335;BME280;4706;41.844;26.082;2022-07-23T10:22:17;100654.84;;;43.46;16.20
9335;BME280;4706;41.844;26.082;2022-07-23T10:30:05;100659.03;;;43.61;15.31
9335;BME280;4706;41.844;26.082;2022-07-23T10:37:50;100631.78;;;43.98;16.03
9335;BME280;4706;41.844;26.082;2022-07-23T10:40:18;100631.47;;;44.13;15.19
9335;BME280;4706;41.844;26.082;2022-07-23T10:42:45;100625.84;;;44.26;15.57
9335;BME280;4706;41.844;26.082;2022-07-23T10:45:29;100626.06;;;44.34;15.39
9335;BME280;4706;41.844;26.082;2022-07-23T10:48:12;100590.53;;;44.28;15.17
9335;BME280;4706;41.844;26.082;2022-07-23T10:50:39;100610.06;;;44.63;15.51
9335;BME280;4706;41.844;26.082;2022-07-23T10:58:00;100597.59;;;44.74;14.85
9335;BME280;4706;41.844;26.082;2022-07-23T11:00:30;100588.34;;;44.75;15.09
9335;BME280;4706;41.844;26.082;2022-07-23T11:02:58;100592.31;;;44.72;14.96
9335;BME280;4706;41.844;26.082;2022-07-23T11:05:44;100575.66;;;44.78;14.46
9335;BME280;4706;41.844;26.082;2022-07-23T11:08:18;100571.22;;;44.72;14.73
9335;BME280;4706;41.844;26.082;2022-07-23T11:10:48;100563.19;;;44.83;14.38
9335;BME280;4706;41.844;26.082;2022-07-23T11:18:57;100563.25;;;45.08;15.03
9335;BME280;4706;41.844;26.082;2022-07-23T11:24:15;100561.19;;;45.27;13.92
9335;BME280;4706;41.844;26.082;2022-07-23T11:26:58;100547.78;;;44.94;13.67
9335;BME280;4706;41.844;26.082;2022-07-23T11:34:35;100556.28;;;44.92;14.29
9335;BME280;4706;41.844;26.082;2022-07-23T11:37:06;100557.47;;;44.78;13.70
9335;BME280;4706;41.844;26.082;2022-07-23T11:39:33;100551.81;;;44.55;14.06
9335;BME280;4706;41.844;26.082;2022-07-23T11:42:00;100554.28;;;44.46;14.43
9335;BME280;4706;41.844;26.082;2022-07-23T11:44:37;100556.97;;;44.38;14.96
9335;BME280;4706;41.844;26.082;2022-07-23T11:47:05;100559.75;;;44.55;14.82
9335;BME280;4706;41.844;26.082;2022-07-23T11:49:31;100550.06;;;44.47;14.39
9335;BME280;4706;41.844;26.082;2022-07-23T11:54:46;100523.44;;;44.07;14.96
9335;BME280;4706;41.844;26.082;2022-07-23T11:57:12;100543.38;;;44.27;14.65
9335;BME280;4706;41.844;26.082;2022-07-23T11:59:38;100540.13;;;43.95;14.08
9335;BME280;4706;41.844;26.082;2022-07-23T12:02:05;100525.38;;;43.24;15.08
9335;BME280;4706;41.844;26.082;2022-07-23T12:04:44;100542.78;;;43.12;14.70
9335;BME280;4706;41.844;26.082;2022-07-23T12:12:47;100535.94;;;42.65;15.53
9335;BME280;4706;41.844;26.082;2022-07-23T12:15:16;100540.16;;;42.53;15.37
9335;BME280;4706;41.844;26.082;2022-07-23T12:17:44;100536.78;;;42.71;15.23
9335;BME280;4706;41.844;26.082;2022-07-23T12:20:13;100527.56;;;42.78;15.54
9335;BME280;4706;41.844;26.082;2022-07-23T12:22:45;100538.06;;;42.87;15.33
9335;BME280;4706;41.844;26.082;2022-07-23T12:25:16;100530.69;;;42.97;15.63
9335;BME280;4706;41.844;26.082;2022-07-23T12:27:43;100519.94;;;42.86;15.21
9335;BME280;4706;41.844;26.082;2022-07-23T12:32:50;100515.94;;;43.01;14.92
9335;BME280;4706;41.844;26.082;2022-07-23T12:35:17;100522.56;;;42.90;15.28
9335;BME280;4706;41.844;26.082;2022-07-23T12:37:44;100527.31;;;42.82;15.14
9335;BME280;4706;41.844;26.082;2022-07-23T12:42:47;100522.00;;;42.91;15.24
9335;BME280;4706;41.844;26.082;2022-07-23T12:45:13;100510.16;;;43.01;15.04
9335;BME280;4706;41.844;26.082;2022-07-23T12:47:57;100495.19;;;42.97;15.07
9335;BME280;4706;41.844;26.082;2022-07-23T12:53:32;100506.72;;;43.02;16.00
9335;BME280;4706;41.844;26.082;2022-07-23T12:58:27;100494.41;;;42.90;15.18
9335;BME280;4706;41.844;26.082;2022-07-23T13:01:05;100500.19;;;42.90;15.49
9335;BME280;4706;41.844;26.082;2022-07-23T13:06:03;100509.16;;;42.81;14.97
9335;BME280;4706;41.844;26.082;2022-07-23T13:08:30;100492.84;;;42.61;15.30
9335;BME280;4706;41.844;26.082;2022-07-23T13:10:57;100500.47;;;42.31;15.01
9335;BME280;4706;41.844;26.082;2022-07-23T13:13:26;100502.59;;;42.25;15.38
9335;BME280;4706;41.844;26.082;2022-07-23T13:15:53;100493.34;;;42.09;15.25
9335;BME280;4706;41.844;26.082;2022-07-23T13:18:19;100493.59;;;42.00;15.79
9335;BME280;4706;41.844;26.082;2022-07-23T13:20:46;100490.09;;;41.68;16.15
9335;BME280;4706;41.844;26.082;2022-07-23T13:23:12;100491.47;;;41.30;16.47
9335;BME280;4706;41.844;26.082;2022-07-23T13:25:38;100490.97;;;41.31;16.56
9335;BME280;4706;41.844;26.082;2022-07-23T13:28:04;100486.72;;;41.15;16.79
9335;BME280;4706;41.844;26.082;2022-07-23T13:30:30;100488.72;;;41.04;16.52
9335;BME280;4706;41.844;26.082;2022-07-23T13:32:55;100485.00;;;40.97;16.83
9335;BME280;4706;41.844;26.082;2022-07-23T13:35:22;100473.09;;;40.78;16.83
9335;BME280;4706;41.844;26.082;2022-07-23T13:37:47;100489.09;;;40.80;16.89
9335;BME280;4706;41.844;26.082;2022-07-23T13:40:13;100480.91;;;40.72;17.17
9335;BME280;4706;41.844;26.082;2022-07-23T13:42:39;100462.03;;;40.77;16.71
9335;BME280;4706;41.844;26.082;2022-07-23T13:45:06;100474.41;;;40.83;17.02
9335;BME280;4706;41.844;26.082;2022-07-23T13:47:32;100471.78;;;40.80;16.51
9335;BME280;4706;41.844;26.082;2022-07-23T13:49:57;100473.09;;;40.78;16.89
9335;BME280;4706;41.844;26.082;2022-07-23T13:52:23;100468.25;;;40.59;16.33
9335;BME280;4706;41.844;26.082;2022-07-23T13:54:49;100468.69;;;40.51;16.74
9335;BME280;4706;41.844;26.082;2022-07-23T13:57:15;100458.97;;;40.49;17.17
9335;BME280;4706;41.844;26.082;2022-07-23T13:59:40;100463.75;;;40.58;16.85